Portada
METAR-TAF:

METAR-TAF

Aeroports :

Tirupati, Índia

latitud: 13-38-16N, longitud: 79-32-50E, altitud: 107 m

Observació

L'informe es va fer fa 37 minuts, a les 07:00 UTC
Vent 16 kt del Oest/Sud-Oest
Temperatura 35°C
Humitat 42%
Pressió 1003 hPa
Visibilitat: 7000 m
Escasses núvols a una alçada de 2000 ft
Núvols disperses a una alçada de 20000 ft

METAR: VOTP 250700Z 25016KT 7000 FEW020 SCT200 35/20 Q1003 NOSIG

Hora: 13:07 (07:37 UTC)


TAF: manca

Observacions i pronòstics meteorològics de més de 4000 aeroports (METAR i TAF).

Les estacions disponibles són els punts grocs i vermells al mapa.

Posi el ratolí al punt desitjat per veure el nom de l'estació.

Feu clic per veure les observacions i els pronòstics meteorològics.

Per canviar el mapa: feu clic els botons verds amb una creu de color negre per apropar; al botó verd amb un guió per allunyar la imatge; o en les fletxes verdes per a mapes adjacents.


METAR-TAF: